Time;durP1;ratioP1;P1;durP2;ratioP2;P2;SDS_P1;SDS_P2;PMS_P1;PMS_P2;Temp;Humidity;BMP_temperature;BMP_pressure;BME280_temperature;BME280_humidity;BME280_pressure;Samples;Min_cycle;Max_cycle;Signal;HPM_P1;HPM_P2
2022/03/21 00:02:08;;;;;;;22.63;11.20;;;;;;;5.90;nan;103941.88;4936908;29;20402;-76
2022/03/21 00:04:34;;;;;;;23.77;11.68;;;;;;;5.87;nan;103936.78;4926408;28;20036;-75
2022/03/21 00:06:59;;;;;;;21.88;11.27;;;;;;;5.83;nan;103931.91;4933602;29;20473;-76
2022/03/21 00:09:25;;;;;;;22.25;10.48;;;;;;;5.81;nan;103933.84;4932351;29;20159;-75
2022/03/21 00:11:50;;;;;;;20.67;11.38;;;;;;;5.79;nan;103935.81;4935638;29;20044;-76
2022/03/21 00:14:16;;;;;;;23.55;12.07;;;;;;;5.73;nan;103937.19;4929573;29;20027;-76
2022/03/21 00:16:43;;;;;;;24.33;11.50;;;;;;;5.71;nan;103939.16;4928538;29;20028;-76
2022/03/21 00:19:08;;;;;;;29.17;11.90;;;;;;;5.68;nan;103940.28;4931372;29;20370;-76
2022/03/21 00:21:35;;;;;;;24.88;12.40;;;;;;;5.67;nan;103930.63;4931140;29;20043;-75
2022/03/21 00:24:01;;;;;;;25.77;11.90;;;;;;;5.65;nan;103939.72;4930240;29;20031;-75
2022/03/21 00:26:27;;;;;;;23.25;11.75;;;;;;;5.63;nan;103937.19;4933577;29;20039;-75
2022/03/21 00:28:52;;;;;;;28.10;11.57;;;;;;;5.60;nan;103936.63;4935082;28;20028;-75
2022/03/21 00:31:18;;;;;;;22.80;11.18;;;;;;;5.57;nan;103927.13;4930779;29;20083;-75
2022/03/21 00:33:43;;;;;;;24.17;11.93;;;;;;;5.53;nan;103933.66;4936512;28;20374;-75
2022/03/21 00:36:09;;;;;;;23.15;11.63;;;;;;;5.52;nan;103934.63;4930404;29;20100;-75
2022/03/21 00:38:37;;;;;;;25.55;11.13;;;;;;;5.52;nan;103931.97;4936910;29;20027;-75
2022/03/21 00:41:04;;;;;;;26.63;12.52;;;;;;;5.53;nan;103922.19;4932443;29;20019;-75
2022/03/21 00:43:30;;;;;;;25.67;11.68;;;;;;;5.50;nan;103922.47;4932659;29;20059;-75
2022/03/21 00:45:57;;;;;;;26.92;11.68;;;;;;;5.51;nan;103926.81;4935528;29;20031;-75
2022/03/21 00:48:25;;;;;;;29.58;12.27;;;;;;;5.46;nan;103929.88;4932903;29;20034;-75
2022/03/21 00:50:54;;;;;;;26.92;11.80;;;;;;;5.41;nan;103940.94;4931634;28;20115;-75
2022/03/21 00:53:21;;;;;;;29.17;13.05;;;;;;;5.40;nan;103938.41;4931217;29;20030;-75
2022/03/21 00:55:48;;;;;;;27.73;12.55;;;;;;;5.37;nan;103933.34;4932642;29;20031;-75
2022/03/21 00:58:14;;;;;;;27.17;11.77;;;;;;;5.35;nan;103940.63;4934594;28;20058;-75
2022/03/21 01:00:40;;;;;;;26.58;13.38;;;;;;;5.30;nan;103941.03;4931447;29;20043;-75
2022/03/21 01:03:06;;;;;;;27.23;13.75;;;;;;;5.27;nan;103945.78;4928517;29;20055;-75
2022/03/21 01:05:32;;;;;;;26.50;12.27;;;;;;;5.22;nan;103945.34;4934721;29;20027;-76
2022/03/21 01:07:58;;;;;;;27.27;12.55;;;;;;;5.22;nan;103942.69;4933229;28;20087;-76
2022/03/21 01:10:26;;;;;;;28.92;13.13;;;;;;;5.18;nan;103936.78;4931676;29;20031;-75
2022/03/21 01:12:52;;;;;;;25.10;11.77;;;;;;;5.16;nan;103949.38;4933938;28;20031;-76
2022/03/21 01:15:20;;;;;;;25.98;12.73;;;;;;;5.10;nan;103942.78;4925249;29;20506;-75
2022/03/21 01:17:47;;;;;;;27.20;12.60;;;;;;;5.09;nan;103946.41;4930561;29;20390;-75
2022/03/21 01:20:15;;;;;;;23.55;11.82;;;;;;;5.09;nan;103938.44;4929620;29;20023;-75
2022/03/21 01:22:40;;;;;;;19.70;11.43;;;;;;;5.09;nan;103937.59;4931438;29;20102;-75
2022/03/21 01:25:07;;;;;;;24.85;11.95;;;;;;;5.08;nan;103934.09;4928909;29;20518;-75
2022/03/21 01:27:36;;;;;;;26.38;12.77;;;;;;;5.04;nan;103932.69;4932678;29;20031;-75
2022/03/21 01:30:08;;;;;;;27.63;14.75;;;;;;;5.02;nan;103931.13;4932098;29;20028;-75
2022/03/21 01:32:34;;;;;;;28.40;13.30;;;;;;;5.02;nan;103929.31;4932460;29;20083;-76
2022/03/21 01:34:59;;;;;;;27.45;12.43;;;;;;;5.02;nan;103931.13;4933157;29;20023;-75
2022/03/21 01:37:25;;;;;;;29.20;12.18;;;;;;;5.01;nan;103926.78;4937252;28;20456;-75
2022/03/21 01:39:50;;;;;;;26.38;12.57;;;;;;;4.99;nan;103932.22;4927908;29;20032;-75
2022/03/21 01:42:16;;;;;;;25.52;13.52;;;;;;;4.97;nan;103934.19;4928159;29;20111;-75
2022/03/21 01:44:42;;;;;;;33.17;12.75;;;;;;;4.95;nan;103927.31;4928459;29;20489;-75
2022/03/21 01:47:07;;;;;;;25.52;12.75;;;;;;;4.91;nan;103934.72;4929352;29;20024;-76
2022/03/21 01:49:33;;;;;;;27.65;13.48;;;;;;;4.91;nan;103928.56;4930669;29;20066;-75
2022/03/21 01:51:59;;;;;;;27.00;13.02;;;;;;;4.88;nan;103919.06;4930891;29;20042;-75
2022/03/21 01:57:11;;;;;;;26.60;12.98;;;;;;;4.81;nan;103918.72;4931990;29;20065;-76
2022/03/21 01:59:37;;;;;;;27.58;13.70;;;;;;;4.75;nan;103913.94;4929362;29;20023;-75
2022/03/21 02:02:05;;;;;;;26.83;12.93;;;;;;;4.74;nan;103916.75;4930836;29;20031;-76
2022/03/21 02:04:31;;;;;;;24.83;12.68;;;;;;;4.71;nan;103911.69;4929524;29;20955;-75
2022/03/21 02:06:58;;;;;;;23.80;12.15;;;;;;;4.69;nan;103909.19;4927119;29;20024;-75
2022/03/21 02:09:23;;;;;;;33.45;13.85;;;;;;;4.67;nan;103910.25;4931066;29;20111;-75
2022/03/21 02:11:49;;;;;;;22.85;13.20;;;;;;;4.61;nan;103916.09;4929888;29;20113;-76
2022/03/21 02:14:15;;;;;;;28.55;12.75;;;;;;;4.59;nan;103918.03;4930348;28;20046;-75
2022/03/21 02:16:41;;;;;;;27.27;13.65;;;;;;;4.52;nan;103907.97;4933630;29;20031;-75
2022/03/21 02:19:18;;;;;;;24.85;12.70;;;;;;;4.47;nan;103909.31;4929533;29;20028;-75
2022/03/21 02:22:08;;;;;;;27.23;12.52;;;;;;;4.33;nan;103907.84;4933271;29;20023;-75
2022/03/21 02:24:58;;;;;;;26.35;13.23;;;;;;;4.32;nan;103903.50;4929730;29;20038;-75
2022/03/21 02:27:26;;;;;;;27.55;12.38;;;;;;;4.32;nan;103900.84;4929149;29;20043;-75
2022/03/21 02:29:53;;;;;;;28.92;13.43;;;;;;;4.34;nan;103904.22;4926458;29;20051;-75
2022/03/21 02:32:20;;;;;;;28.73;13.65;;;;;;;4.33;nan;103897.22;4930311;29;20027;-75
2022/03/21 02:34:46;;;;;;;27.50;13.57;;;;;;;4.34;nan;103898.06;4935272;29;20083;-75
2022/03/21 02:37:16;;;;;;;30.83;14.55;;;;;;;4.31;nan;103900.94;4930429;29;20440;-75
2022/03/21 02:39:43;;;;;;;28.85;13.77;;;;;;;4.29;nan;103901.09;4930149;29;20078;-75
2022/03/21 02:42:09;;;;;;;28.85;12.80;;;;;;;4.29;nan;103895.78;4925496;29;20040;-75
2022/03/21 02:44:35;;;;;;;30.58;14.60;;;;;;;4.29;nan;103903.75;4926498;29;20498;-75
2022/03/21 02:47:02;;;;;;;29.55;14.57;;;;;;;4.29;nan;103901.09;4924849;29;20078;-75
2022/03/21 02:49:27;;;;;;;28.70;13.07;;;;;;;4.28;nan;103899.41;4931550;29;20688;-75
2022/03/21 02:51:54;;;;;;;27.25;13.88;;;;;;;4.26;nan;103901.34;4930582;29;20031;-75
2022/03/21 02:54:22;;;;;;;29.13;13.57;;;;;;;4.23;nan;103894.50;4934197;29;20030;-75
2022/03/21 02:56:49;;;;;;;27.15;13.13;;;;;;;4.19;nan;103897.53;4931806;29;20066;-75
2022/03/21 02:59:18;;;;;;;26.52;13.20;;;;;;;4.14;nan;103886.47;4934247;29;20028;-75
2022/03/21 03:01:44;;;;;;;30.98;13.77;;;;;;;4.13;nan;103884.75;4936052;29;20031;-75
2022/03/21 03:04:10;;;;;;;32.92;14.35;;;;;;;4.10;nan;103885.03;4927795;29;20028;-75
2022/03/21 03:06:39;;;;;;;38.00;13.73;;;;;;;4.10;nan;103885.03;4927719;29;20034;-75
2022/03/21 03:09:06;;;;;;;28.48;13.15;;;;;;;4.10;nan;103880.56;4928965;29;20363;-76
2022/03/21 03:11:32;;;;;;;36.13;15.25;;;;;;;4.10;nan;103882.38;4937201;29;20023;-75
2022/03/21 03:13:57;;;;;;;27.48;13.63;;;;;;;4.08;nan;103881.66;4930722;29;20090;-75
2022/03/21 03:16:23;;;;;;;32.05;14.73;;;;;;;4.06;nan;103883.59;4930347;29;20043;-75
2022/03/21 03:18:48;;;;;;;30.27;14.25;;;;;;;4.02;nan;103885.69;4930456;28;20116;-75
2022/03/21 03:21:19;;;;;;;31.70;13.40;;;;;;;3.99;nan;103887.75;4933550;29;20126;-75
2022/03/21 03:23:48;;;;;;;32.60;14.05;;;;;;;3.99;nan;103891.25;4928773;28;20501;-75
2022/03/21 03:26:14;;;;;;;31.45;14.93;;;;;;;3.99;nan;103891.25;4943470;28;20123;-75
2022/03/21 03:28:39;;;;;;;26.10;12.98;;;;;;;3.96;nan;103890.66;4930595;29;20055;-75
2022/03/21 03:31:05;;;;;;;31.40;15.20;;;;;;;3.93;nan;103889.09;4930172;29;20514;-75
2022/03/21 03:33:31;;;;;;;28.27;13.07;;;;;;;3.90;nan;103890.19;4933000;29;20110;-75
2022/03/21 03:35:57;;;;;;;26.17;15.15;;;;;;;3.88;nan;103892.13;4931252;29;20028;-75
2022/03/21 03:38:23;;;;;;;28.90;13.35;;;;;;;3.87;nan;103889.59;4929181;29;20040;-75
2022/03/21 03:40:48;;;;;;;32.15;14.35;;;;;;;3.85;nan;103892.38;4933557;29;20106;-75
2022/03/21 03:43:17;;;;;;;33.33;14.07;;;;;;;3.82;nan;103884.69;4933394;29;20397;-75
2022/03/21 03:45:43;;;;;;;27.77;13.10;;;;;;;3.81;nan;103883.00;4929094;29;20509;-75
2022/03/21 03:48:09;;;;;;;26.58;13.43;;;;;;;3.76;nan;103879.88;4933707;28;20038;-75
2022/03/21 03:50:35;;;;;;;32.40;14.35;;;;;;;3.74;nan;103886.28;4935361;29;20024;-75
2022/03/21 03:53:01;;;;;;;29.20;13.10;;;;;;;3.70;nan;103890.16;4930194;29;20039;-75
2022/03/21 03:55:27;;;;;;;27.77;13.18;;;;;;;3.68;nan;103884.97;4932414;29;20035;-75
2022/03/21 03:57:53;;;;;;;30.23;13.82;;;;;;;3.64;nan;103884.38;4931525;29;20036;-75
2022/03/21 04:00:19;;;;;;;25.85;13.85;;;;;;;3.62;nan;103882.84;4926211;29;20023;-75
2022/03/21 04:05:30;;;;;;;29.25;14.70;;;;;;;3.58;nan;103894.63;4928485;29;20152;-75
2022/03/21 04:07:56;;;;;;;30.98;14.18;;;;;;;3.53;nan;103888.88;4934394;29;20031;-75
2022/03/21 04:10:21;;;;;;;27.73;13.90;;;;;;;3.50;nan;103900.56;4932718;29;20034;-75
2022/03/21 04:12:48;;;;;;;31.73;14.98;;;;;;;3.50;nan;103902.38;4931357;29;20031;-76
2022/03/21 04:15:15;;;;;;;27.75;13.90;;;;;;;3.47;nan;103900.00;4936254;28;20617;-75
2022/03/21 04:17:41;;;;;;;31.25;14.45;;;;;;;3.47;nan;103903.47;4926530;29;20024;-75
2022/03/21 04:20:07;;;;;;;33.10;15.07;;;;;;;3.44;nan;103906.38;4929368;29;20027;-75
2022/03/21 04:22:37;;;;;;;33.13;15.07;;;;;;;3.40;nan;103906.72;4927223;29;20903;-75
2022/03/21 04:25:06;;;;;;;36.05;15.73;;;;;;;3.36;nan;103911.44;4932312;29;20035;-75
2022/03/21 04:27:32;;;;;;;39.65;14.93;;;;;;;3.35;nan;103915.06;4932902;29;20093;-75
2022/03/21 04:29:58;;;;;;;48.65;14.85;;;;;;;3.31;nan;103916.28;4931114;28;20046;-75
2022/03/21 04:32:24;;;;;;;34.80;15.52;;;;;;;3.24;nan;103923.88;4923855;29;20067;-76
2022/03/21 04:34:49;;;;;;;35.85;15.88;;;;;;;3.15;nan;103923.75;4927200;29;20085;-75
2022/03/21 04:37:15;;;;;;;30.63;13.98;;;;;;;3.09;nan;103929.56;4928992;29;20027;-75
2022/03/21 04:39:40;;;;;;;36.33;15.15;;;;;;;3.08;nan;103922.56;4933280;29;20467;-75
2022/03/21 04:42:06;;;;;;;29.20;14.27;;;;;;;2.96;nan;103924.38;4933185;29;20051;-75
2022/03/21 04:44:32;;;;;;;32.63;14.00;;;;;;;2.85;nan;103925.19;4932187;29;20114;-75
2022/03/21 04:46:57;;;;;;;28.85;13.90;;;;;;;2.82;nan;103916.66;4937159;29;20034;-75
2022/03/21 04:49:23;;;;;;;31.92;14.10;;;;;;;2.78;nan;103923.16;4930115;29;20474;-75
2022/03/21 04:51:48;;;;;;;31.23;14.57;;;;;;;2.67;nan;103929.25;4926598;29;20039;-75
2022/03/21 04:54:14;;;;;;;29.17;14.10;;;;;;;2.53;nan;103926.84;4930608;29;20078;-75
2022/03/21 04:56:40;;;;;;;25.60;14.13;;;;;;;2.38;nan;103920.91;4926617;29;20031;-75
2022/03/21 04:59:07;;;;;;;31.25;14.02;;;;;;;2.28;nan;103922.56;4925571;29;20490;-75
2022/03/21 05:01:33;;;;;;;29.05;14.15;;;;;;;2.17;nan;103930.47;4931388;29;20184;-75
2022/03/21 05:04:00;;;;;;;36.45;15.98;;;;;;;2.07;nan;103925.88;4930946;29;20110;-75
2022/03/21 05:06:26;;;;;;;28.88;14.82;;;;;;;2.12;nan;103923.72;4933384;29;20035;-75
2022/03/21 05:08:51;;;;;;;29.55;14.15;;;;;;;2.26;nan;103929.78;4934591;29;20453;-75
2022/03/21 05:11:17;;;;;;;34.95;15.18;;;;;;;2.31;nan;103930.25;4930018;29;20028;-75
2022/03/21 05:13:43;;;;;;;29.90;15.55;;;;;;;2.37;nan;103933.31;4928559;29;20051;-75
2022/03/21 05:16:08;;;;;;;31.10;15.27;;;;;;;2.45;nan;103940.66;4931657;28;20474;-75
2022/03/21 05:18:34;;;;;;;31.05;16.70;;;;;;;2.51;nan;103940.19;4931199;29;20144;-75
2022/03/21 05:21:04;;;;;;;31.80;16.30;;;;;;;2.56;nan;103942.50;4930450;29;20024;-75
2022/03/21 05:31:43;;;;;;;41.72;17.70;;;;;;;2.68;nan;103937.09;4933639;29;20035;-75
2022/03/21 05:36:53;;;;;;;36.50;17.08;;;;;;;2.72;nan;103938.56;4930200;29;20069;-75
2022/03/21 05:39:19;;;;;;;35.85;17.52;;;;;;;2.75;nan;103937.47;4926124;29;20062;-76
2022/03/21 05:41:45;;;;;;;38.05;18.35;;;;;;;2.78;nan;103939.03;4928332;29;20028;-76
2022/03/21 05:44:11;;;;;;;35.63;17.75;;;;;;;2.81;nan;103946.75;4931377;29;20095;-76
2022/03/21 05:46:37;;;;;;;37.72;17.15;;;;;;;2.85;nan;103951.69;4930295;29;20042;-76
2022/03/21 05:49:03;;;;;;;37.60;19.15;;;;;;;2.90;nan;103956.63;4930885;29;20036;-76
2022/03/21 05:51:31;;;;;;;37.95;17.98;;;;;;;2.92;nan;103946.75;4928196;29;20028;-76
2022/03/21 05:54:06;;;;;;;37.58;18.33;;;;;;;2.93;nan;103945.81;4930152;29;20118;-76
2022/03/21 05:56:32;;;;;;;36.85;18.65;;;;;;;2.98;nan;103947.13;4926608;28;20072;-76
2022/03/21 06:00:20;;;;;;;36.33;17.73;;;;;;;3.02;nan;103947.72;4933892;29;20027;-76
2022/03/21 06:01:50;;;;;;;36.15;17.33;;;;;;;3.08;nan;103955.19;4935704;29;20059;-76
2022/03/21 06:04:17;;;;;;;35.25;17.75;;;;;;;3.13;nan;103953.03;4928348;29;20023;-76
2022/03/21 06:06:43;;;;;;;34.88;17.95;;;;;;;3.20;nan;103951.56;4926475;29;20024;-76
2022/03/21 06:09:09;;;;;;;36.17;18.05;;;;;;;3.30;nan;103955.19;4926469;29;20042;-76
2022/03/21 06:11:36;;;;;;;35.80;17.23;;;;;;;3.42;nan;103957.84;4929267;29;20027;-76
2022/03/21 06:14:04;;;;;;;33.67;15.90;;;;;;;3.52;nan;103964.06;4926219;29;20036;-76
2022/03/21 06:16:29;;;;;;;34.45;16.08;;;;;;;3.60;nan;103956.38;4923844;29;20028;-75
2022/03/21 06:18:55;;;;;;;28.73;14.63;;;;;;;3.64;nan;103955.16;4927303;29;20494;-75
2022/03/21 06:21:20;;;;;;;33.13;15.25;;;;;;;3.66;nan;103958.50;4922498;29;20035;-75
2022/03/21 06:23:46;;;;;;;30.25;15.20;;;;;;;3.67;nan;103957.53;4929616;29;20107;-75
2022/03/21 06:26:12;;;;;;;36.72;15.00;;;;;;;3.70;nan;103964.41;4926104;29;20027;-76
2022/03/21 06:28:38;;;;;;;33.58;14.55;;;;;;;3.73;nan;103964.16;4925439;29;20035;-76
2022/03/21 06:31:04;;;;;;;37.25;15.85;;;;;;;3.75;nan;103960.41;4930935;29;20175;-75
2022/03/21 06:33:31;;;;;;;40.85;15.45;;;;;;;3.81;nan;103959.94;4923573;29;20184;-75
2022/03/21 06:35:59;;;;;;;43.88;15.50;;;;;;;3.86;nan;103952.44;4924776;29;20030;-75
2022/03/21 06:38:25;;;;;;;33.53;15.25;;;;;;;3.92;nan;103959.88;4929633;29;20066;-75
2022/03/21 06:40:51;;;;;;;39.72;14.43;;;;;;;3.96;nan;103957.84;4934493;29;20118;-75
2022/03/21 06:43:19;;;;;;;31.83;13.57;;;;;;;4.03;nan;103958.16;4932510;29;20532;-75
2022/03/21 06:45:47;;;;;;;29.98;14.18;;;;;;;4.08;nan;103950.66;4926181;29;20036;-75
2022/03/21 06:48:13;;;;;;;33.47;14.40;;;;;;;4.14;nan;103958.13;4932464;29;20034;-76
2022/03/21 06:50:39;;;;;;;30.65;13.73;;;;;;;4.20;nan;103960.25;4927766;29;20124;-75
2022/03/21 06:53:04;;;;;;;29.95;13.98;;;;;;;4.28;nan;103952.50;4923337;29;20028;-75
2022/03/21 06:55:30;;;;;;;32.13;15.15;;;;;;;4.36;nan;103955.38;4927206;29;20039;-76
2022/03/21 06:57:56;;;;;;;30.10;13.55;;;;;;;4.45;nan;103956.38;4924150;29;20030;-76
2022/03/21 07:00:21;;;;;;;35.08;14.77;;;;;;;4.53;nan;103960.09;4926861;29;20016;-75
2022/03/21 07:02:47;;;;;;;33.50;14.25;;;;;;;4.60;nan;103957.75;4923053;29;20039;-76
2022/03/21 07:05:12;;;;;;;35.05;15.10;;;;;;;4.68;nan;103957.97;4932260;29;20036;-76
2022/03/21 07:07:38;;;;;;;28.38;13.85;;;;;;;4.77;nan;103961.63;4923537;29;20064;-76
2022/03/21 07:10:09;;;;;;;30.00;13.80;;;;;;;4.87;nan;103964.34;4938189;28;20055;-76
2022/03/21 07:12:35;;;;;;;33.78;14.38;;;;;;;4.95;nan;103965.38;4932954;29;20063;-75
2022/03/21 07:15:04;;;;;;;35.22;13.57;;;;;;;5.05;nan;103968.09;4926704;28;20020;-76
2022/03/21 07:17:31;;;;;;;30.58;13.27;;;;;;;5.14;nan;103964.59;4930321;29;20023;-75
2022/03/21 07:19:57;;;;;;;27.77;13.32;;;;;;;5.23;nan;103969.13;4936607;29;20036;-76
2022/03/21 07:22:22;;;;;;;28.45;13.23;;;;;;;5.31;nan;103969.28;4936394;29;20033;-76
2022/03/21 07:24:49;;;;;;;25.42;12.00;;;;;;;5.38;nan;103958.94;4929692;29;20051;-76
2022/03/21 07:27:16;;;;;;;26.70;13.38;;;;;;;5.46;nan;103959.97;4929283;29;20420;-76
2022/03/21 07:29:42;;;;;;;28.80;13.77;;;;;;;5.53;nan;103954.94;4919034;29;20458;-76
2022/03/21 07:32:10;;;;;;;26.20;13.00;;;;;;;5.61;nan;103957.78;4934166;29;20030;-76
2022/03/21 07:34:36;;;;;;;34.15;13.70;;;;;;;5.70;nan;103959.59;4930950;28;20059;-76
2022/03/21 07:37:01;;;;;;;30.90;12.57;;;;;;;5.82;nan;103967.47;4928837;29;20064;-76
2022/03/21 07:39:29;;;;;;;25.60;13.07;;;;;;;5.92;nan;103957.69;4936751;28;20027;-76
2022/03/21 07:42:00;;;;;;;25.98;12.57;;;;;;;6.01;nan;103959.53;4934362;29;20027;-76
2022/03/21 07:47:20;;;;;;;27.67;12.95;;;;;;;6.21;nan;103965.69;4939353;29;20635;-76
2022/03/21 07:49:53;;;;;;;26.73;11.88;;;;;;;6.27;nan;103965.97;4933010;29;20421;-76
2022/03/21 07:52:20;;;;;;;31.50;13.13;;;;;;;6.36;nan;103969.63;4930806;29;20026;-77
2022/03/21 07:54:53;;;;;;;22.67;11.82;;;;;;;6.42;nan;103965.53;4936514;29;20031;-76
2022/03/21 07:57:26;;;;;;;26.15;12.77;;;;;;;6.53;nan;103962.72;4928234;29;20027;-76
2022/03/21 07:59:52;;;;;;;30.42;13.32;;;;;;;6.61;nan;103953.03;4936873;29;20019;-76
2022/03/21 08:02:19;;;;;;;29.38;12.85;;;;;;;6.72;nan;103960.03;4933425;29;20319;-77
2022/03/21 08:04:46;;;;;;;25.58;12.07;;;;;;;6.81;nan;103961.81;4935623;29;20024;-77
2022/03/21 08:07:12;;;;;;;21.98;11.70;;;;;;;6.91;nan;103967.97;4938250;29;20027;-77
2022/03/21 08:09:38;;;;;;;21.80;12.10;;;;;;;7.01;nan;103962.63;4935816;29;20134;-77
2022/03/21 08:12:04;;;;;;;27.35;12.73;;;;;;;7.13;nan;103960.59;4932676;28;20043;-77
2022/03/21 08:14:29;;;;;;;25.95;12.05;;;;;;;7.25;nan;103964.75;4936336;29;20697;-76
2022/03/21 08:16:55;;;;;;;28.10;13.02;;;;;;;7.40;nan;103960.63;4936406;29;20059;-77
2022/03/21 08:19:24;;;;;;;21.23;12.15;;;;;;;7.52;nan;103966.56;4937980;29;20074;-77
2022/03/21 08:21:52;;;;;;;22.05;11.80;;;;;;;7.63;nan;103963.69;4932159;28;20109;-77
2022/03/21 08:24:19;;;;;;;25.83;13.23;;;;;;;7.75;nan;103970.50;4935121;29;20039;-77
2022/03/21 08:26:44;;;;;;;23.88;11.55;;;;;;;7.85;nan;103957.09;4937181;29;20118;-77
2022/03/21 08:29:10;;;;;;;22.95;12.35;;;;;;;7.96;nan;103953.38;4932541;29;20110;-77
2022/03/21 08:31:35;;;;;;;22.27;11.25;;;;;;;8.08;nan;103947.66;4932264;29;20528;-77
2022/03/21 08:34:05;;;;;;;21.10;11.30;;;;;;;8.20;nan;103950.91;4934334;29;20031;-77
2022/03/21 08:36:31;;;;;;;26.58;11.90;;;;;;;8.33;nan;103945.16;4933944;28;20031;-77
2022/03/21 08:38:57;;;;;;;30.25;11.68;;;;;;;8.47;nan;103950.84;4939063;29;20035;-77
2022/03/21 08:41:23;;;;;;;25.80;11.88;;;;;;;8.59;nan;103942.53;4933175;29;20031;-78
2022/03/21 08:43:48;;;;;;;25.60;11.75;;;;;;;8.70;nan;103942.28;4938046;29;20019;-78
2022/03/21 08:46:14;;;;;;;26.63;11.45;;;;;;;8.82;nan;103938.38;4940852;29;20035;-78
2022/03/21 08:51:24;;;;;;;21.02;11.38;;;;;;;9.11;nan;103932.63;4944533;29;20703;-78
2022/03/21 08:53:50;;;;;;;22.88;11.15;;;;;;;9.26;nan;103925.69;4936150;29;20031;-78
2022/03/21 08:56:16;;;;;;;19.90;10.82;;;;;;;9.38;nan;103921.72;4938698;29;20524;-79
2022/03/21 08:58:42;;;;;;;15.40;10.13;;;;;;;9.50;nan;103924.91;4949811;29;20031;-78
2022/03/21 09:01:08;;;;;;;17.05;10.60;;;;;;;9.59;nan;103918.59;4935992;29;20035;-78
2022/03/21 09:03:33;;;;;;;18.33;10.73;;;;;;;9.71;nan;103921.81;4942705;29;20039;-79
2022/03/21 09:05:59;;;;;;;18.70;11.02;;;;;;;9.84;nan;103916.78;4947560;29;20027;-78
2022/03/21 09:08:24;;;;;;;20.90;10.57;;;;;;;9.99;nan;103919.63;4934122;29;20133;-78
2022/03/21 09:10:50;;;;;;;15.70;9.60;;;;;;;10.09;nan;103914.97;4931903;29;20135;-78
2022/03/21 09:13:15;;;;;;;15.27;8.48;;;;;;;10.19;nan;103909.41;4936155;29;20020;-78
2022/03/21 09:15:43;;;;;;;13.75;8.32;;;;;;;10.29;nan;103910.97;4931518;29;20043;-78
2022/03/21 09:18:08;;;;;;;14.07;7.88;;;;;;;10.35;nan;103906.75;4937244;29;20031;-78
2022/03/21 09:20:34;;;;;;;15.68;8.55;;;;;;;10.39;nan;103905.41;4941893;29;20054;-79
2022/03/21 09:22:59;;;;;;;16.05;7.95;;;;;;;10.40;nan;103901.72;4927485;29;20027;-78
2022/03/21 09:25:25;;;;;;;15.63;8.02;;;;;;;10.39;nan;103905.41;4937001;29;20093;-78
2022/03/21 09:27:51;;;;;;;17.67;8.55;;;;;;;10.44;nan;103903.06;4949513;29;20027;-78
2022/03/21 09:30:16;;;;;;;14.63;8.27;;;;;;;10.53;nan;103904.72;4952425;29;20493;-78
2022/03/21 09:32:42;;;;;;;15.10;7.78;;;;;;;10.66;nan;103904.19;4945256;29;20030;-79
2022/03/21 09:35:08;;;;;;;13.77;7.88;;;;;;;10.82;nan;103906.00;4943948;29;20024;-78
2022/03/21 09:37:34;;;;;;;17.83;8.43;;;;;;;10.95;nan;103903.59;4936746;29;20042;-78
2022/03/21 09:39:59;;;;;;;13.20;7.85;;;;;;;10.97;nan;103896.22;4938988;29;20782;-79
2022/03/21 09:42:26;;;;;;;16.40;9.20;;;;;;;11.01;nan;103899.38;4927750;29;20032;-79
2022/03/21 09:44:53;;;;;;;15.40;8.82;;;;;;;11.00;nan;103901.22;4944991;29;20438;-79
2022/03/21 09:50:10;;;;;;;16.60;9.35;;;;;;;11.27;nan;103897.22;4933513;29;20115;-79
2022/03/21 09:52:36;;;;;;;15.57;8.93;;;;;;;11.40;nan;103897.50;4936883;29;20469;-79
2022/03/21 09:55:02;;;;;;;13.70;8.30;;;;;;;11.51;nan;103885.53;4930464;29;20040;-79
2022/03/21 09:57:28;;;;;;;16.13;9.07;;;;;;;11.62;nan;103885.09;4933137;29;20035;-79
2022/03/21 09:59:58;;;;;;;15.68;8.55;;;;;;;11.69;nan;103878.03;4937284;29;20028;-79
2022/03/21 10:02:24;;;;;;;17.40;8.25;;;;;;;11.68;nan;103878.19;4934603;29;20023;-79
2022/03/21 10:04:50;;;;;;;14.32;8.70;;;;;;;11.68;nan;103873.66;4935071;29;20062;-79
2022/03/21 10:07:26;;;;;;;15.85;8.55;;;;;;;11.74;nan;103872.94;4937650;29;20083;-79
2022/03/21 10:10:16;;;;;;;16.88;9.90;;;;;;;11.86;nan;103867.19;4936077;29;20043;-79
2022/03/21 10:12:42;;;;;;;16.00;7.93;;;;;;;12.10;nan;103867.78;4936977;29;20036;-79
2022/03/21 10:15:10;;;;;;;13.75;7.82;;;;;;;12.22;nan;103870.88;4938887;29;20342;-79
2022/03/21 10:17:36;;;;;;;12.02;7.78;;;;;;;12.30;nan;103864.56;4931647;29;20036;-81
2022/03/21 10:20:04;;;;;;;14.18;7.53;;;;;;;12.41;nan;103864.13;4936557;29;20031;-79
2022/03/21 10:22:32;;;;;;;12.48;7.55;;;;;;;12.48;nan;103859.69;4930631;29;20028;-80
2022/03/21 10:25:10;;;;;;;13.80;8.43;;;;;;;12.56;nan;103856.03;4938970;29;20031;-80
2022/03/21 10:27:39;;;;;;;16.90;8.45;;;;;;;12.60;nan;103868.97;4938040;29;20035;-80
2022/03/21 10:30:43;;;;;;;13.38;8.40;;;;;;;12.52;nan;103860.13;4935607;28;20087;-80
2022/03/21 10:33:09;;;;;;;13.13;8.00;;;;;;;12.66;nan;103864.69;4906746;29;20095;-80
2022/03/21 10:35:45;;;;;;;15.63;8.35;;;;;;;12.74;nan;103859.19;4936931;29;20047;-80
2022/03/21 10:38:11;;;;;;;12.77;7.97;;;;;;;12.81;nan;103860.13;4929970;29;20078;-80
2022/03/21 10:40:44;;;;;;;15.80;8.27;;;;;;;12.85;nan;103853.34;4941867;29;20015;-80
2022/03/21 10:43:11;;;;;;;13.88;8.45;;;;;;;12.94;nan;103852.25;4936939;29;20464;-80
2022/03/21 10:45:36;;;;;;;17.25;8.43;;;;;;;13.04;nan;103860.00;4936546;29;20031;-80
2022/03/21 10:48:07;;;;;;;11.90;8.20;;;;;;;13.04;nan;103846.53;4944065;29;20023;-80
2022/03/21 10:50:41;;;;;;;15.98;8.73;;;;;;;13.05;nan;103844.69;4936614;29;20027;-81
2022/03/21 10:53:13;;;;;;;12.77;7.97;;;;;;;12.96;nan;103849.34;4927702;29;20043;-80
2022/03/21 10:55:41;;;;;;;14.40;8.48;;;;;;;12.95;nan;103839.63;4936590;29;20297;-80
2022/03/21 10:58:06;;;;;;;12.70;8.57;;;;;;;13.03;nan;103850.25;4936498;29;20039;-80
2022/03/21 11:00:33;;;;;;;12.77;7.93;;;;;;;13.04;nan;103845.72;4939483;29;20020;-78
2022/03/21 11:03:09;;;;;;;15.32;8.50;;;;;;;13.00;nan;103839.88;4935914;29;20024;-80
2022/03/21 11:05:37;;;;;;;13.30;7.72;;;;;;;12.98;nan;103840.06;4931189;29;20669;-80
2022/03/21 11:08:04;;;;;;;13.93;8.73;;;;;;;13.04;nan;103838.47;4943171;29;20059;-80
2022/03/21 11:10:30;;;;;;;12.93;7.55;;;;;;;13.08;nan;103837.06;4935770;29;20383;-80
2022/03/21 11:12:58;;;;;;;13.48;8.48;;;;;;;13.23;nan;103832.50;4936732;29;20039;-80
2022/03/21 11:15:25;;;;;;;14.45;8.70;;;;;;;13.32;nan;103835.91;4938680;29;20031;-80
2022/03/21 11:17:51;;;;;;;13.77;8.73;;;;;;;13.47;nan;103823.25;4938483;29;20588;-80
2022/03/21 11:20:17;;;;;;;13.95;8.30;;;;;;;13.63;nan;103832.88;4932517;29;20020;-83
2022/03/21 11:22:43;;;;;;;14.32;8.80;;;;;;;13.76;nan;103824.09;4934367;29;20054;-82
2022/03/21 11:25:43;;;;;;;16.27;8.90;;;;;;;13.88;nan;103827.94;4939816;29;20064;-82
2022/03/21 11:28:23;;;;;;;17.10;9.65;;;;;;;14.02;nan;103821.63;4940041;29;20051;-82
2022/03/21 11:31:25;;;;;;;17.55;9.20;;;;;;;14.17;nan;103814.25;4935248;29;20379;-82
2022/03/21 11:34:20;;;;;;;13.35;8.65;;;;;;;14.33;nan;103826.59;4942818;29;20105;-82
2022/03/21 11:36:54;;;;;;;15.15;8.57;;;;;;;14.52;nan;103817.78;4944954;29;20107;-82
2022/03/21 11:39:20;;;;;;;14.20;8.65;;;;;;;14.59;nan;103812.44;4945798;29;20119;-82
2022/03/21 11:42:11;;;;;;;12.88;9.13;;;;;;;14.70;nan;103811.03;4936657;29;20036;-82
2022/03/21 11:44:38;;;;;;;15.38;9.25;;;;;;;14.90;nan;103794.91;4931093;29;20043;-83
2022/03/21 11:47:24;;;;;;;20.98;9.85;;;;;;;15.07;nan;103796.19;4932621;29;20891;-82
2022/03/21 11:49:51;;;;;;;17.38;9.00;;;;;;;15.33;nan;103793.56;4948574;29;20091;-83
2022/03/21 11:52:16;;;;;;;16.73;9.40;;;;;;;15.52;nan;103788.38;4936331;29;20549;-84
2022/03/21 11:54:42;;;;;;;16.85;9.38;;;;;;;15.59;nan;103781.97;4942504;29;20031;-83
2022/03/21 11:57:10;;;;;;;18.15;9.20;;;;;;;15.75;nan;103777.19;4942092;29;20129;-82
2022/03/21 11:59:35;;;;;;;18.45;10.65;;;;;;;15.92;nan;103768.44;4938924;29;20020;-83
2022/03/21 12:02:22;;;;;;;15.45;9.35;;;;;;;16.06;nan;103769.25;4934114;29;20072;-82